Littleton, Colorado
Current Conditions -  °F | °C
As of 3:53 AM on Thursday 18 Dec 2014 (Local Time) from KAPA Reporting Station
Scattered Clouds Scattered Clouds  
Wind Chill: 21°   Ceiling: Unl
Heat Index: 28°   Visibility: 7mi
Dew Point: 26°   Wind: 7mph
Humidity: 92%   Direction: 180°S
Pressure: 29.97"   Gusts: NA
Location:  39.62°N, 105.01°W
Report Text: KAPA 181053Z 18006KT 7SM FEW050 SCT160 M02/M03 A2997 RMK AO2 SLP167 T10221033
Loading
Personal Weather Stations






























Interactive Weather Map New forecast layout! Learn more

10-Day Weather Forecast

Advertisements
Track Severe Weather on mobile